sensor_id;sensor_type;location;lat;lon;timestamp;pressure;altitude;pressure_sealevel;temperature;humidity
39739;BME280;25422;48.286;8.484;2023-02-10T00:03:38;95728.66;;;-7.53;100.00
39739;BME280;25422;48.286;8.484;2023-02-10T00:06:04;95727.16;;;-7.65;100.00
39739;BME280;25422;48.286;8.484;2023-02-10T00:08:30;95730.63;;;-7.70;100.00
39739;BME280;25422;48.286;8.484;2023-02-10T00:10:57;95737.34;;;-7.68;100.00
39739;BME280;25422;48.286;8.484;2023-02-10T00:13:24;95736.47;;;-7.67;100.00
39739;BME280;25422;48.286;8.484;2023-02-10T00:15:49;95734.81;;;-7.66;100.00
39739;BME280;25422;48.286;8.484;2023-02-10T00:18:15;95729.72;;;-7.66;100.00
39739;BME280;25422;48.286;8.484;2023-02-10T00:20:40;95725.59;;;-7.76;100.00
39739;BME280;25422;48.286;8.484;2023-02-10T00:23:05;95728.19;;;-7.78;100.00
39739;BME280;25422;48.286;8.484;2023-02-10T00:25:34;95727.19;;;-7.69;100.00
39739;BME280;25422;48.286;8.484;2023-02-10T00:28:00;95732.44;;;-7.82;100.00
39739;BME280;25422;48.286;8.484;2023-02-10T00:30:25;95730.88;;;-7.90;100.00
39739;BME280;25422;48.286;8.484;2023-02-10T00:32:50;95731.75;;;-7.93;100.00
39739;BME280;25422;48.286;8.484;2023-02-10T00:35:16;95737.66;;;-7.91;100.00
39739;BME280;25422;48.286;8.484;2023-02-10T00:37:41;95731.66;;;-7.87;100.00
39739;BME280;25422;48.286;8.484;2023-02-10T00:40:07;95722.41;;;-7.89;100.00
39739;BME280;25422;48.286;8.484;2023-02-10T00:42:32;95724.16;;;-7.93;100.00
39739;BME280;25422;48.286;8.484;2023-02-10T00:45:16;95724.22;;;-8.01;100.00
39739;BME280;25422;48.286;8.484;2023-02-10T00:47:41;95716.69;;;-8.08;100.00
39739;BME280;25422;48.286;8.484;2023-02-10T00:50:07;95713.34;;;-8.10;100.00
39739;BME280;25422;48.286;8.484;2023-02-10T00:52:33;95709.09;;;-8.10;100.00
39739;BME280;25422;48.286;8.484;2023-02-10T00:54:58;95715.09;;;-8.14;100.00
39739;BME280;25422;48.286;8.484;2023-02-10T00:57:23;95712.56;;;-8.16;100.00
39739;BME280;25422;48.286;8.484;2023-02-10T00:59:49;95714.25;;;-8.15;100.00
39739;BME280;25422;48.286;8.484;2023-02-10T01:02:14;95710.91;;;-8.18;100.00
39739;BME280;25422;48.286;8.484;2023-02-10T01:04:40;95724.50;;;-8.22;100.00
39739;BME280;25422;48.286;8.484;2023-02-10T01:07:05;95735.53;;;-8.22;100.00
39739;BME280;25422;48.286;8.484;2023-02-10T01:09:31;95743.13;;;-8.23;100.00
39739;BME280;25422;48.286;8.484;2023-02-10T01:11:56;95746.47;;;-8.18;100.00
39739;BME280;25422;48.286;8.484;2023-02-10T01:14:21;95748.22;;;-8.22;100.00
39739;BME280;25422;48.286;8.484;2023-02-10T01:16:47;95747.41;;;-8.27;100.00
39739;BME280;25422;48.286;8.484;2023-02-10T01:19:12;95752.56;;;-8.33;100.00
39739;BME280;25422;48.286;8.484;2023-02-10T01:21:38;95751.75;;;-8.35;100.00
39739;BME280;25422;48.286;8.484;2023-02-10T01:24:05;95745.78;;;-8.34;100.00
39739;BME280;25422;48.286;8.484;2023-02-10T01:26:31;95737.25;;;-8.25;100.00
39739;BME280;25422;48.286;8.484;2023-02-10T01:28:56;95736.41;;;-8.27;100.00
39739;BME280;25422;48.286;8.484;2023-02-10T01:31:22;95733.84;;;-8.23;100.00
39739;BME280;25422;48.286;8.484;2023-02-10T01:33:51;95734.78;;;-8.30;100.00
39739;BME280;25422;48.286;8.484;2023-02-10T01:36:18;95738.09;;;-8.26;100.00
39739;BME280;25422;48.286;8.484;2023-02-10T01:38:44;95743.13;;;-8.23;100.00
39739;BME280;25422;48.286;8.484;2023-02-10T01:41:11;95743.16;;;-8.25;100.00
39739;BME280;25422;48.286;8.484;2023-02-10T01:46:18;95752.63;;;-8.38;100.00
39739;BME280;25422;48.286;8.484;2023-02-10T01:48:44;95754.31;;;-8.37;100.00
39739;BME280;25422;48.286;8.484;2023-02-10T01:51:09;95759.25;;;-8.26;100.00
39739;BME280;25422;48.286;8.484;2023-02-10T01:53:34;95752.44;;;-8.24;100.00
39739;BME280;25422;48.286;8.484;2023-02-10T01:56:01;95754.94;;;-8.19;100.00
39739;BME280;25422;48.286;8.484;2023-02-10T01:58:29;95755.84;;;-8.22;100.00
39739;BME280;25422;48.286;8.484;2023-02-10T02:00:57;95751.59;;;-8.21;100.00
39739;BME280;25422;48.286;8.484;2023-02-10T02:03:23;95755.84;;;-8.25;100.00
39739;BME280;25422;48.286;8.484;2023-02-10T02:05:48;95752.50;;;-8.27;100.00
39739;BME280;25422;48.286;8.484;2023-02-10T02:08:16;95751.66;;;-8.26;100.00
39739;BME280;25422;48.286;8.484;2023-02-10T02:16:39;95742.34;;;-8.27;100.00
39739;BME280;25422;48.286;8.484;2023-02-10T02:27:15;95752.44;;;-8.24;100.00
39739;BME280;25422;48.286;8.484;2023-02-10T02:32:33;95757.59;;;-8.28;100.00
39739;BME280;25422;48.286;8.484;2023-02-10T02:35:06;95755.09;;;-8.33;100.00
39739;BME280;25422;48.286;8.484;2023-02-10T02:37:36;95752.56;;;-8.33;100.00
39739;BME280;25422;48.286;8.484;2023-02-10T02:40:03;95759.38;;;-8.35;100.00
39739;BME280;25422;48.286;8.484;2023-02-10T02:42:30;95756.03;;;-8.40;100.00
39739;BME280;25422;48.286;8.484;2023-02-10T02:45:07;95750.88;;;-8.34;100.00
39739;BME280;25422;48.286;8.484;2023-02-10T02:47:54;95749.16;;;-8.32;100.00
39739;BME280;25422;48.286;8.484;2023-02-10T02:50:57;95757.59;;;-8.32;100.00
39739;BME280;25422;48.286;8.484;2023-02-10T02:53:45;95761.09;;;-8.40;100.00
39739;BME280;25422;48.286;8.484;2023-02-10T02:58:59;95762.91;;;-8.49;100.00
39739;BME280;25422;48.286;8.484;2023-02-10T03:01:55;95761.16;;;-8.45;100.00
39739;BME280;25422;48.286;8.484;2023-02-10T03:04:23;95762.00;;;-8.44;100.00
39739;BME280;25422;48.286;8.484;2023-02-10T03:06:52;95764.69;;;-8.57;100.00
39739;BME280;25422;48.286;8.484;2023-02-10T03:09:17;95758.81;;;-8.62;100.00
39739;BME280;25422;48.286;8.484;2023-02-10T03:11:43;95757.19;;;-8.68;100.00
39739;BME280;25422;48.286;8.484;2023-02-10T03:14:08;95760.63;;;-8.72;100.00
39739;BME280;25422;48.286;8.484;2023-02-10T03:16:34;95769.91;;;-8.72;100.00
39739;BME280;25422;48.286;8.484;2023-02-10T03:18:59;95762.28;;;-8.72;100.00
39739;BME280;25422;48.286;8.484;2023-02-10T03:21:25;95761.41;;;-8.68;100.00
39739;BME280;25422;48.286;8.484;2023-02-10T03:23:50;95759.78;;;-8.74;100.00
39739;BME280;25422;48.286;8.484;2023-02-10T03:26:16;95758.13;;;-8.79;100.00
39739;BME280;25422;48.286;8.484;2023-02-10T03:28:41;95763.25;;;-8.83;100.00
39739;BME280;25422;48.286;8.484;2023-02-10T03:31:07;95769.97;;;-8.78;100.00
39739;BME280;25422;48.286;8.484;2023-02-10T03:33:33;95767.44;;;-8.78;100.00
39739;BME280;25422;48.286;8.484;2023-02-10T03:35:59;95768.25;;;-8.73;100.00
39739;BME280;25422;48.286;8.484;2023-02-10T03:38:26;95765.63;;;-8.67;100.00
39739;BME280;25422;48.286;8.484;2023-02-10T03:40:52;95773.22;;;-8.66;100.00
39739;BME280;25422;48.286;8.484;2023-02-10T03:43:19;95772.50;;;-8.77;100.00
39739;BME280;25422;48.286;8.484;2023-02-10T03:45:45;95778.44;;;-8.81;100.00
39739;BME280;25422;48.286;8.484;2023-02-10T03:48:10;95783.56;;;-8.86;100.00
39739;BME280;25422;48.286;8.484;2023-02-10T03:50:36;95777.69;;;-8.89;100.00
39739;BME280;25422;48.286;8.484;2023-02-10T03:53:01;95783.59;;;-8.89;100.00
39739;BME280;25422;48.286;8.484;2023-02-10T03:55:27;95783.63;;;-8.93;100.00
39739;BME280;25422;48.286;8.484;2023-02-10T03:57:53;95794.56;;;-8.90;100.00
39739;BME280;25422;48.286;8.484;2023-02-10T04:00:18;95787.78;;;-8.85;100.00
39739;BME280;25422;48.286;8.484;2023-02-10T04:02:44;95794.56;;;-8.85;100.00
39739;BME280;25422;48.286;8.484;2023-02-10T04:05:10;95798.81;;;-8.89;100.00
39739;BME280;25422;48.286;8.484;2023-02-10T04:07:36;95803.81;;;-8.79;100.00
39739;BME280;25422;48.286;8.484;2023-02-10T04:10:03;95786.00;;;-8.76;100.00
39739;BME280;25422;48.286;8.484;2023-02-10T04:12:28;95787.66;;;-8.72;100.00
39739;BME280;25422;48.286;8.484;2023-02-10T04:14:54;95787.75;;;-8.80;100.00
39739;BME280;25422;48.286;8.484;2023-02-10T04:17:19;95802.16;;;-8.84;100.00
39739;BME280;25422;48.286;8.484;2023-02-10T04:19:44;95791.97;;;-8.81;100.00
39739;BME280;25422;48.286;8.484;2023-02-10T04:22:10;95802.97;;;-8.83;100.00
39739;BME280;25422;48.286;8.484;2023-02-10T04:24:35;95801.31;;;-8.83;100.00
39739;BME280;25422;48.286;8.484;2023-02-10T04:27:01;95799.53;;;-8.73;100.00
39739;BME280;25422;48.286;8.484;2023-02-10T04:29:26;95804.56;;;-8.70;100.00
39739;BME280;25422;48.286;8.484;2023-02-10T04:31:52;95810.47;;;-8.71;100.00
39739;BME280;25422;48.286;8.484;2023-02-10T04:34:17;95801.22;;;-8.72;100.00
39739;BME280;25422;48.286;8.484;2023-02-10T04:36:43;95803.75;;;-8.72;100.00
39739;BME280;25422;48.286;8.484;2023-02-10T04:39:08;95787.75;;;-8.80;100.00
39739;BME280;25422;48.286;8.484;2023-02-10T04:41:34;95795.34;;;-8.78;100.00
39739;BME280;25422;48.286;8.484;2023-02-10T04:43:59;95794.47;;;-8.74;100.00
39739;BME280;25422;48.286;8.484;2023-02-10T04:46:25;95788.59;;;-8.81;100.00
39739;BME280;25422;48.286;8.484;2023-02-10T04:48:50;95800.50;;;-8.88;100.00
39739;BME280;25422;48.286;8.484;2023-02-10T04:51:16;95811.53;;;-8.93;100.00
39739;BME280;25422;48.286;8.484;2023-02-10T04:53:41;95799.75;;;-8.98;100.00
39739;BME280;25422;48.286;8.484;2023-02-10T04:56:09;95806.44;;;-8.92;100.00
39739;BME280;25422;48.286;8.484;2023-02-10T04:58:35;95805.59;;;-8.91;100.00
39739;BME280;25422;48.286;8.484;2023-02-10T05:01:00;95797.13;;;-8.91;100.00
39739;BME280;25422;48.286;8.484;2023-02-10T05:03:26;95794.66;;;-8.96;100.00
39739;BME280;25422;48.286;8.484;2023-02-10T05:05:51;95799.75;;;-8.99;100.00
39739;BME280;25422;48.286;8.484;2023-02-10T05:08:18;95798.13;;;-9.08;100.00
39739;BME280;25422;48.286;8.484;2023-02-10T05:10:52;95797.28;;;-9.08;100.00
39739;BME280;25422;48.286;8.484;2023-02-10T05:13:18;95802.34;;;-9.08;100.00
39739;BME280;25422;48.286;8.484;2023-02-10T05:15:43;95810.81;;;-9.11;100.00
39739;BME280;25422;48.286;8.484;2023-02-10T05:18:09;95799.06;;;-9.18;100.00
39739;BME280;25422;48.286;8.484;2023-02-10T05:20:35;95799.91;;;-9.24;100.00
39739;BME280;25422;48.286;8.484;2023-02-10T05:23:00;95802.47;;;-9.27;100.00
39739;BME280;25422;48.286;8.484;2023-02-10T05:25:25;95805.00;;;-9.27;100.00
39739;BME280;25422;48.286;8.484;2023-02-10T05:27:51;95807.56;;;-9.28;100.00
39739;BME280;25422;48.286;8.484;2023-02-10T05:30:16;95801.66;;;-9.29;100.00
39739;BME280;25422;48.286;8.484;2023-02-10T05:32:42;95811.81;;;-9.29;100.00
39739;BME280;25422;48.286;8.484;2023-02-10T05:35:08;95806.78;;;-9.37;100.00
39739;BME280;25422;48.286;8.484;2023-02-10T05:37:34;95816.09;;;-9.42;100.00
39739;BME280;25422;48.286;8.484;2023-02-10T05:39:59;95810.16;;;-9.39;100.00
39739;BME280;25422;48.286;8.484;2023-02-10T05:42:25;95816.06;;;-9.40;100.00
39739;BME280;25422;48.286;8.484;2023-02-10T05:44:50;95810.09;;;-9.30;100.00
39739;BME280;25422;48.286;8.484;2023-02-10T05:47:16;95816.84;;;-9.27;100.00
39739;BME280;25422;48.286;8.484;2023-02-10T05:49:41;95821.91;;;-9.30;100.00
39739;BME280;25422;48.286;8.484;2023-02-10T05:52:07;95818.59;;;-9.36;100.00
39739;BME280;25422;48.286;8.484;2023-02-10T05:54:32;95825.41;;;-9.44;100.00
39739;BME280;25422;48.286;8.484;2023-02-10T05:56:58;95825.38;;;-9.41;100.00
39739;BME280;25422;48.286;8.484;2023-02-10T05:59:23;95822.78;;;-9.30;100.00
39739;BME280;25422;48.286;8.484;2023-02-10T06:01:49;95825.25;;;-9.19;100.00
39739;BME280;25422;48.286;8.484;2023-02-10T06:04:14;95831.97;;;-9.15;100.00
39739;BME280;25422;48.286;8.484;2023-02-10T06:06:39;95842.16;;;-9.18;100.00
39739;BME280;25422;48.286;8.484;2023-02-10T06:09:05;95836.91;;;-8.98;100.00
39739;BME280;25422;48.286;8.484;2023-02-10T06:11:30;95830.97;;;-8.94;100.00
39739;BME280;25422;48.286;8.484;2023-02-10T06:13:56;95838.56;;;-8.94;100.00
39739;BME280;25422;48.286;8.484;2023-02-10T06:16:21;95831.03;;;-9.00;100.00
39739;BME280;25422;48.286;8.484;2023-02-10T06:18:47;95839.50;;;-9.04;100.00
39739;BME280;25422;48.286;8.484;2023-02-10T06:21:14;95845.38;;;-8.98;100.00
39739;BME280;25422;48.286;8.484;2023-02-10T06:23:40;95844.50;;;-8.92;100.00
39739;BME280;25422;48.286;8.484;2023-02-10T06:26:06;95843.66;;;-8.92;100.00
39739;BME280;25422;48.286;8.484;2023-02-10T06:28:31;95847.91;;;-8.96;100.00
39739;BME280;25422;48.286;8.484;2023-02-10T06:30:57;95850.47;;;-8.99;100.00
39739;BME280;25422;48.286;8.484;2023-02-10T06:33:23;95855.53;;;-9.02;100.00
39739;BME280;25422;48.286;8.484;2023-02-10T06:35:48;95851.34;;;-9.03;100.00
39739;BME280;25422;48.286;8.484;2023-02-10T06:38:14;95861.50;;;-9.08;100.00
39739;BME280;25422;48.286;8.484;2023-02-10T06:40:40;95856.44;;;-9.09;100.00
39739;BME280;25422;48.286;8.484;2023-02-10T06:43:05;95861.53;;;-9.11;100.00
39739;BME280;25422;48.286;8.484;2023-02-10T06:45:31;95862.41;;;-9.15;100.00
39739;BME280;25422;48.286;8.484;2023-02-10T06:47:57;95869.16;;;-9.12;100.00
39739;BME280;25422;48.286;8.484;2023-02-10T06:50:23;95873.34;;;-9.11;100.00
39739;BME280;25422;48.286;8.484;2023-02-10T06:52:48;95870.03;;;-9.17;100.00
39739;BME280;25422;48.286;8.484;2023-02-10T06:55:14;95876.81;;;-9.22;100.00
39739;BME280;25422;48.286;8.484;2023-02-10T06:57:40;95877.69;;;-9.26;100.00
39739;BME280;25422;48.286;8.484;2023-02-10T07:00:07;95888.63;;;-9.24;100.00
39739;BME280;25422;48.286;8.484;2023-02-10T07:02:34;95892.00;;;-9.14;100.00
39739;BME280;25422;48.286;8.484;2023-02-10T07:05:00;95892.84;;;-9.15;100.00
39739;BME280;25422;48.286;8.484;2023-02-10T07:07:27;95894.50;;;-9.11;100.00
39739;BME280;25422;48.286;8.484;2023-02-10T07:09:53;95893.50;;;-8.87;100.00
39739;BME280;25422;48.286;8.484;2023-02-10T07:12:21;95895.16;;;-8.83;100.00
39739;BME280;25422;48.286;8.484;2023-02-10T07:14:46;95895.91;;;-8.70;100.00
39739;BME280;25422;48.286;8.484;2023-02-10T07:17:12;95893.28;;;-8.59;100.00
39739;BME280;25422;48.286;8.484;2023-02-10T07:19:37;95901.69;;;-8.52;100.00
39739;BME280;25422;48.286;8.484;2023-02-10T07:22:03;95902.56;;;-8.52;100.00
39739;BME280;25422;48.286;8.484;2023-02-10T07:24:32;95899.13;;;-8.48;100.00
39739;BME280;25422;48.286;8.484;2023-02-10T07:26:58;95902.34;;;-8.30;100.00
39739;BME280;25422;48.286;8.484;2023-02-10T07:29:23;95904.75;;;-8.19;100.00
39739;BME280;25422;48.286;8.484;2023-02-10T07:31:48;95900.38;;;-8.05;100.00
39739;BME280;25422;48.286;8.484;2023-02-10T07:34:14;95905.31;;;-7.88;100.00
39739;BME280;25422;48.286;8.484;2023-02-10T07:36:39;95909.31;;;-7.68;100.00
39739;BME280;25422;48.286;8.484;2023-02-10T07:39:05;95908.44;;;-7.64;100.00
39739;BME280;25422;48.286;8.484;2023-02-10T07:41:30;95915.16;;;-7.60;100.00
39739;BME280;25422;48.286;8.484;2023-02-10T07:43:55;95914.09;;;-7.42;100.00
39739;BME280;25422;48.286;8.484;2023-02-10T07:46:21;95913.84;;;-7.19;100.00
39739;BME280;25422;48.286;8.484;2023-02-10T07:48:47;95913.97;;;-7.31;100.00
39739;BME280;25422;48.286;8.484;2023-02-10T07:51:12;95916.25;;;-7.08;100.00
39739;BME280;25422;48.286;8.484;2023-02-10T07:53:38;95919.16;;;-6.73;100.00
39739;BME280;25422;48.286;8.484;2023-02-10T07:56:04;95918.00;;;-6.54;100.00
39739;BME280;25422;48.286;8.484;2023-02-10T07:58:30;95916.03;;;-6.36;100.00
39739;BME280;25422;48.286;8.484;2023-02-10T08:00:56;95921.59;;;-6.13;100.00
39739;BME280;25422;48.286;8.484;2023-02-10T08:03:21;95918.72;;;-5.96;100.00
39739;BME280;25422;48.286;8.484;2023-02-10T08:05:47;95921.38;;;-5.55;100.00
39739;BME280;25422;48.286;8.484;2023-02-10T08:08:14;95922.81;;;-4.99;100.00
39739;BME280;25422;48.286;8.484;2023-02-10T08:10:40;95921.94;;;-4.21;100.00
39739;BME280;25422;48.286;8.484;2023-02-10T08:13:06;95918.03;;;-3.36;100.00
39739;BME280;25422;48.286;8.484;2023-02-10T08:15:32;95921.34;;;-2.73;100.00
39739;BME280;25422;48.286;8.484;2023-02-10T08:17:59;95915.34;;;-2.16;100.00
39739;BME280;25422;48.286;8.484;2023-02-10T08:20:24;95916.50;;;-2.00;100.00
39739;BME280;25422;48.286;8.484;2023-02-10T08:22:54;95913.97;;;-1.75;100.00
39739;BME280;25422;48.286;8.484;2023-02-10T08:25:20;95918.13;;;-1.97;100.00
39739;BME280;25422;48.286;8.484;2023-02-10T08:27:45;95915.06;;;-1.82;100.00
39739;BME280;25422;48.286;8.484;2023-02-10T08:30:11;95921.59;;;-1.98;100.00
39739;BME280;25422;48.286;8.484;2023-02-10T08:32:37;95928.97;;;-1.89;100.00
39739;BME280;25422;48.286;8.484;2023-02-10T08:35:03;95926.41;;;-1.89;100.00
39739;BME280;25422;48.286;8.484;2023-02-10T08:37:28;95924.75;;;-1.65;100.00
39739;BME280;25422;48.286;8.484;2023-02-10T08:39:54;95924.88;;;-0.72;100.00
39739;BME280;25422;48.286;8.484;2023-02-10T08:42:19;95927.63;;;-0.32;100.00
39739;BME280;25422;48.286;8.484;2023-02-10T08:44:44;95921.22;;;0.62;100.00
39739;BME280;25422;48.286;8.484;2023-02-10T08:47:10;95925.66;;;0.98;100.00
39739;BME280;25422;48.286;8.484;2023-02-10T08:49:39;95925.13;;;1.30;97.96
39739;BME280;25422;48.286;8.484;2023-02-10T08:52:04;95919.63;;;2.11;93.50
39739;BME280;25422;48.286;8.484;2023-02-10T08:54:29;95916.50;;;2.04;89.57
39739;BME280;25422;48.286;8.484;2023-02-10T08:56:55;95924.19;;;1.69;95.62
39739;BME280;25422;48.286;8.484;2023-02-10T08:59:21;95918.88;;;2.26;89.91
39739;BME280;25422;48.286;8.484;2023-02-10T09:01:47;95915.53;;;2.42;85.66
39739;BME280;25422;48.286;8.484;2023-02-10T09:04:12;95921.75;;;2.55;85.73
39739;BME280;25422;48.286;8.484;2023-02-10T09:06:39;95919.66;;;2.62;86.66
39739;BME280;25422;48.286;8.484;2023-02-10T09:09:10;95908.00;;;2.88;81.87
39739;BME280;25422;48.286;8.484;2023-02-10T09:11:36;95910.81;;;3.65;80.66
39739;BME280;25422;48.286;8.484;2023-02-10T09:14:03;95909.84;;;3.51;77.15
39739;BME280;25422;48.286;8.484;2023-02-10T09:16:28;95913.00;;;3.72;74.84
39739;BME280;25422;48.286;8.484;2023-02-10T09:18:53;95913.41;;;3.33;75.17
39739;BME280;25422;48.286;8.484;2023-02-10T09:21:19;95906.66;;;3.46;81.03
39739;BME280;25422;48.286;8.484;2023-02-10T09:23:44;95909.81;;;3.83;75.15
39739;BME280;25422;48.286;8.484;2023-02-10T09:26:10;95912.00;;;3.27;76.27
39739;BME280;25422;48.286;8.484;2023-02-10T09:28:36;95914.66;;;3.42;79.80
39739;BME280;25422;48.286;8.484;2023-02-10T09:31:06;95919.19;;;3.38;76.03
39739;BME280;25422;48.286;8.484;2023-02-10T09:33:32;95918.28;;;4.01;74.64
39739;BME280;25422;48.286;8.484;2023-02-10T09:35:57;95922.56;;;3.86;73.30
39739;BME280;25422;48.286;8.484;2023-02-10T09:38:23;95912.56;;;3.80;73.66
39739;BME280;25422;48.286;8.484;2023-02-10T09:44:03;95915.34;;;3.61;78.74
39739;BME280;25422;48.286;8.484;2023-02-10T09:50:03;95922.44;;;3.90;72.43
39739;BME280;25422;48.286;8.484;2023-02-10T09:53:03;95919.25;;;3.84;72.75
39739;BME280;25422;48.286;8.484;2023-02-10T09:55:59;95923.56;;;4.00;70.10
39739;BME280;25422;48.286;8.484;2023-02-10T09:58:30;95922.69;;;3.37;71.48
39739;BME280;25422;48.286;8.484;2023-02-10T10:01:21;95919.53;;;3.48;72.00
39739;BME280;25422;48.286;8.484;2023-02-10T10:04:02;95920.66;;;4.20;68.45
39739;BME280;25422;48.286;8.484;2023-02-10T10:06:45;95921.53;;;4.21;67.28
39739;BME280;25422;48.286;8.484;2023-02-10T10:09:14;95921.75;;;3.86;66.09
39739;BME280;25422;48.286;8.484;2023-02-10T10:11:45;95922.75;;;3.67;69.83
39739;BME280;25422;48.286;8.484;2023-02-10T10:14:23;95916.47;;;3.87;69.45
39739;BME280;25422;48.286;8.484;2023-02-10T10:31:23;95930.53;;;3.83;69.53
39739;BME280;25422;48.286;8.484;2023-02-10T10:33:33;95931.38;;;4.30;69.32
39739;BME280;25422;48.286;8.484;2023-02-10T10:36:01;95919.53;;;4.10;72.27
39739;BME280;25422;48.286;8.484;2023-02-10T10:38:46;95924.13;;;5.23;64.99
39739;BME280;25422;48.286;8.484;2023-02-10T10:41:14;95914.34;;;5.00;65.00
39739;BME280;25422;48.286;8.484;2023-02-10T10:43:49;95920.28;;;5.02;63.27
39739;BME280;25422;48.286;8.484;2023-02-10T10:46:26;95907.22;;;5.03;63.53
39739;BME280;25422;48.286;8.484;2023-02-10T10:48:53;95913.31;;;5.02;64.89
39739;BME280;25422;48.286;8.484;2023-02-10T10:51:19;95901.81;;;5.35;63.15
39739;BME280;25422;48.286;8.484;2023-02-10T10:53:48;95895.72;;;5.64;60.64
39739;BME280;25422;48.286;8.484;2023-02-10T10:58:59;95898.34;;;5.49;60.97
39739;BME280;25422;48.286;8.484;2023-02-10T11:01:34;95910.16;;;4.68;62.22
39739;BME280;25422;48.286;8.484;2023-02-10T11:04:10;95905.69;;;4.56;65.64
39739;BME280;25422;48.286;8.484;2023-02-10T11:06:37;95899.00;;;5.38;63.88
39739;BME280;25422;48.286;8.484;2023-02-10T11:09:06;95900.63;;;5.27;62.98
39739;BME280;25422;48.286;8.484;2023-02-10T11:11:41;95896.34;;;4.68;64.51
39739;BME280;25422;48.286;8.484;2023-02-10T11:14:23;95891.56;;;4.76;63.67
39739;BME280;25422;48.286;8.484;2023-02-10T11:16:58;95891.22;;;5.38;62.03
39739;BME280;25422;48.286;8.484;2023-02-10T11:19:31;95889.03;;;4.60;64.04
39739;BME280;25422;48.286;8.484;2023-02-10T11:21:58;95882.91;;;5.33;62.03
39739;BME280;25422;48.286;8.484;2023-02-10T11:24:32;95885.88;;;5.42;60.99
39739;BME280;25422;48.286;8.484;2023-02-10T11:27:03;95894.41;;;6.26;54.91
39739;BME280;25422;48.286;8.484;2023-02-10T11:29:32;95891.13;;;7.14;51.26
39739;BME280;25422;48.286;8.484;2023-02-10T11:31:59;95890.78;;;7.31;50.43
39739;BME280;25422;48.286;8.484;2023-02-10T11:34:31;95890.47;;;7.23;49.77
39739;BME280;25422;48.286;8.484;2023-02-10T11:36:59;95881.84;;;7.22;49.85
39739;BME280;25422;48.286;8.484;2023-02-10T11:39:37;95878.88;;;8.72;44.06
39739;BME280;25422;48.286;8.484;2023-02-10T11:42:10;95872.56;;;7.55;46.91
39739;BME280;25422;48.286;8.484;2023-02-10T11:44:36;95873.19;;;7.59;46.13
39739;BME280;25422;48.286;8.484;2023-02-10T11:47:05;95876.00;;;7.19;48.79
39739;BME280;25422;48.286;8.484;2023-02-10T11:49:35;95872.41;;;6.83;48.47
39739;BME280;25422;48.286;8.484;2023-02-10T11:52:05;95876.25;;;7.77;46.52
39739;BME280;25422;48.286;8.484;2023-02-10T11:54:31;95868.06;;;8.30;45.28
39739;BME280;25422;48.286;8.484;2023-02-10T11:57:21;95869.84;;;8.65;43.61
39739;BME280;25422;48.286;8.484;2023-02-10T12:00:32;95860.34;;;9.55;41.53
39739;BME280;25422;48.286;8.484;2023-02-10T12:06:20;95863.06;;;10.08;40.54
39739;BME280;25422;48.286;8.484;2023-02-10T12:09:01;95860.72;;;9.94;39.91
39739;BME280;25422;48.286;8.484;2023-02-10T12:11:28;95866.34;;;9.11;39.84
39739;BME280;25422;48.286;8.484;2023-02-10T12:28:06;95847.41;;;9.97;39.55
39739;BME280;25422;48.286;8.484;2023-02-10T12:31:18;95849.38;;;10.79;38.38
39739;BME280;25422;48.286;8.484;2023-02-10T12:39:48;95843.63;;;11.17;35.33
39739;BME280;25422;48.286;8.484;2023-02-10T12:42:33;95846.53;;;9.64;38.44
39739;BME280;25422;48.286;8.484;2023-02-10T12:48:14;95832.41;;;8.42;38.25
39739;BME280;25422;48.286;8.484;2023-02-10T12:50:58;95829.00;;;9.87;37.84
39739;BME280;25422;48.286;8.484;2023-02-10T12:53:41;95820.88;;;11.17;34.04
39739;BME280;25422;48.286;8.484;2023-02-10T12:56:19;95819.16;;;11.37;32.89
39739;BME280;25422;48.286;8.484;2023-02-10T12:58:53;95823.78;;;10.62;34.22
39739;BME280;25422;48.286;8.484;2023-02-10T13:01:35;95825.97;;;9.82;36.58
39739;BME280;25422;48.286;8.484;2023-02-10T13:04:16;95818.22;;;10.34;35.89
39739;BME280;25422;48.286;8.484;2023-02-10T13:07:17;95823.66;;;9.56;35.83
39739;BME280;25422;48.286;8.484;2023-02-10T13:09:52;95812.84;;;11.09;35.03
39739;BME280;25422;48.286;8.484;2023-02-10T13:12:29;95818.31;;;10.23;35.42
39739;BME280;25422;48.286;8.484;2023-02-10T13:15:05;95828.50;;;8.83;37.87
39739;BME280;25422;48.286;8.484;2023-02-10T13:18:01;95826.31;;;7.59;41.75
39739;BME280;25422;48.286;8.484;2023-02-10T13:20:37;95821.41;;;5.88;45.81
39739;BME280;25422;48.286;8.484;2023-02-10T13:26:29;95825.44;;;4.54;50.33
39739;BME280;25422;48.286;8.484;2023-02-10T13:29:07;95819.97;;;4.59;50.65
39739;BME280;25422;48.286;8.484;2023-02-10T13:32:01;95824.69;;;4.52;50.85
39739;BME280;25422;48.286;8.484;2023-02-10T13:34:43;95825.88;;;4.32;52.52
39739;BME280;25422;48.286;8.484;2023-02-10T13:37:22;95823.94;;;3.91;52.65
39739;BME280;25422;48.286;8.484;2023-02-10T13:39:57;95828.16;;;3.78;52.99
39739;BME280;25422;48.286;8.484;2023-02-10T13:42:26;95822.22;;;3.76;52.08
39739;BME280;25422;48.286;8.484;2023-02-10T13:45:04;95825.84;;;3.57;52.36
39739;BME280;25422;48.286;8.484;2023-02-10T13:47:36;95827.28;;;3.31;52.17
39739;BME280;25422;48.286;8.484;2023-02-10T13:52:51;95828.22;;;3.14;54.09
39739;BME280;25422;48.286;8.484;2023-02-10T14:00:46;95841.56;;;3.38;53.84
39739;BME280;25422;48.286;8.484;2023-02-10T14:05:59;95838.13;;;3.37;52.74
39739;BME280;25422;48.286;8.484;2023-02-10T14:08:27;95835.44;;;3.39;51.45
39739;BME280;25422;48.286;8.484;2023-02-10T14:13:31;95840.22;;;3.47;50.61
39739;BME280;25422;48.286;8.484;2023-02-10T14:18:43;95831.34;;;3.51;48.94
39739;BME280;25422;48.286;8.484;2023-02-10T14:21:13;95843.16;;;3.41;49.92
39739;BME280;25422;48.286;8.484;2023-02-10T14:23:42;95836.22;;;3.41;46.38
39739;BME280;25422;48.286;8.484;2023-02-10T14:26:19;95840.16;;;3.32;46.95
39739;BME280;25422;48.286;8.484;2023-02-10T14:28:52;95840.91;;;3.34;46.60
39739;BME280;25422;48.286;8.484;2023-02-10T14:31:24;95842.75;;;3.32;45.77
39739;BME280;25422;48.286;8.484;2023-02-10T14:33:55;95842.75;;;3.32;46.48
39739;BME280;25422;48.286;8.484;2023-02-10T14:36:22;95846.84;;;3.36;48.39
39739;BME280;25422;48.286;8.484;2023-02-10T14:38:56;95847.66;;;3.21;49.16
39739;BME280;25422;48.286;8.484;2023-02-10T14:41:23;95841.84;;;3.17;48.73